Time,TemperatureF,DewpointF,PressureIn,WindDirection,WindDirectionDegrees,WindSpeedMPH,WindSpeedGustMPH,Humidity,HourlyPrecipIn,Conditions,Clouds,dailyrainin,SoftwareType,DateUTC
2013-03-30 00:00:00,39.2,33.5,30.05,SSE,165,4.6,4.6,80,0.00,CLR,,0.00,WeatherDisplay:10.37,2013-03-30 05:00:00,
2013-03-30 00:05:00,39.2,33.5,30.05,SSE,165,4.0,4.0,80,0.00,CLR,,0.00,WeatherDisplay:10.37,2013-03-30 05:05:00,
2013-03-30 00:10:00,39.1,33.5,30.05,SSE,162,5.8,5.8,80,0.00,CLR,,0.00,WeatherDisplay:10.37,2013-03-30 05:10:00,
2013-03-30 00:15:00,38.9,33.3,30.04,South,171,6.9,6.9,80,0.00,CLR,,0.00,WeatherDisplay:10.37,2013-03-30 05:15:00,
2013-03-30 00:20:00,39.1,33.5,30.04,SSE,161,4.6,4.6,80,0.00,CLR,,0.00,WeatherDisplay:10.37,2013-03-30 05:20:00,
2013-03-30 00:25:00,39.1,33.5,30.04,SSE,159,4.6,4.6,80,0.00,CLR,,0.00,WeatherDisplay:10.37,2013-03-30 05:25:00,
2013-03-30 00:30:00,39.2,33.5,30.04,SSE,163,6.9,6.9,80,0.00,SCT,,0.00,WeatherDisplay:10.37,2013-03-30 05:30:00,
2013-03-30 00:35:00,39.1,33.5,30.04,SSE,158,5.8,5.8,80,0.00,SCT,,0.00,WeatherDisplay:10.37,2013-03-30 05:35:00,
2013-03-30 00:40:00,38.9,33.3,30.04,SSE,158,4.6,4.6,80,0.00,SCT,,0.00,WeatherDisplay:10.37,2013-03-30 05:40:00,
2013-03-30 00:45:00,38.9,33.3,30.04,South,173,3.5,3.5,80,0.00,SCT,,0.00,WeatherDisplay:10.37,2013-03-30 05:45:00,
2013-03-30 00:50:00,39.1,33.5,30.04,SSE,158,5.8,5.8,80,0.00,SCT,,0.00,WeatherDisplay:10.37,2013-03-30 05:50:00,
2013-03-30 00:55:00,39.2,33.2,30.04,SE,127,6.9,6.9,79,0.00,SCT,,0.00,WeatherDisplay:10.37,2013-03-30 05:55:00,
2013-03-30 01:00:00,39.3,33.3,30.03,South,169,6.9,6.9,79,0.00,BKN,,0.00,WeatherDisplay:10.37,2013-03-30 06:00:00,
2013-03-30 01:05:00,39.3,33.0,30.03,SSE,148,5.8,5.8,78,0.00,BKN,,0.00,WeatherDisplay:10.37,2013-03-30 06:05:00,
2013-03-30 01:10:00,39.3,33.0,30.03,SSE,168,5.8,5.8,78,0.00,BKN,,0.00,WeatherDisplay:10.37,2013-03-30 06:10:00,
2013-03-30 01:15:00,39.3,33.0,30.02,SSE,162,5.8,5.8,78,0.00,BKN,,0.00,WeatherDisplay:10.37,2013-03-30 06:15:00,
2013-03-30 01:20:00,39.3,33.0,30.02,SSE,165,4.6,4.6,78,0.00,BKN,,0.00,WeatherDisplay:10.37,2013-03-30 06:20:00,
2013-03-30 01:25:00,39.3,33.0,30.02,SSE,164,3.5,3.5,78,0.00,BKN,,0.00,WeatherDisplay:10.37,2013-03-30 06:25:00,
2013-03-30 01:30:00,39.3,32.7,30.01,SSE,167,9.2,9.2,77,0.00,BKN,,0.00,WeatherDisplay:10.37,2013-03-30 06:30:00,
2013-03-30 01:35:00,39.3,32.7,30.01,SE,143,9.2,9.2,77,0.00,BKN,,0.00,WeatherDisplay:10.37,2013-03-30 06:35:00,
2013-03-30 01:40:00,39.3,32.7,30.01,SSE,163,8.1,8.1,77,0.00,BKN,,0.00,WeatherDisplay:10.37,2013-03-30 06:40:00,
2013-03-30 01:45:00,39.3,32.7,30.00,South,173,6.0,6.0,77,0.00,BKN,,0.00,WeatherDisplay:10.37,2013-03-30 06:45:00,
2013-03-30 01:50:00,39.3,32.7,30.00,SE,138,6.9,6.9,77,0.00,BKN,,0.00,WeatherDisplay:10.37,2013-03-30 06:50:00,
2013-03-30 01:55:00,39.3,32.7,30.00,SSE,159,4.6,4.6,77,0.00,BKN,,0.00,WeatherDisplay:10.37,2013-03-30 06:55:00,
2013-03-30 02:00:00,39.6,32.7,29.99,South,175,4.0,4.0,76,0.00,OVC,,0.00,WeatherDisplay:10.37,2013-03-30 07:00:00,
2013-03-30 02:05:00,39.6,32.7,29.99,SSE,163,10.4,10.4,76,0.00,OVC,,0.00,WeatherDisplay:10.37,2013-03-30 07:05:00,
2013-03-30 02:10:00,39.8,32.5,29.99,SSE,153,9.2,9.2,75,0.00,OVC,,0.00,WeatherDisplay:10.37,2013-03-30 07:10:00,
2013-03-30 02:15:00,39.8,32.5,29.99,SSE,149,8.1,8.1,75,0.00,OVC,,0.00,WeatherDisplay:10.37,2013-03-30 07:15:00,
2013-03-30 02:20:00,39.8,32.5,29.99,SSE,149,11.5,11.5,75,0.00,OVC,,0.00,WeatherDisplay:10.37,2013-03-30 07:20:00,
2013-03-30 02:25:00,39.6,32.3,29.99,South,173,8.1,8.1,75,0.00,OVC,,0.00,WeatherDisplay:10.37,2013-03-30 07:25:00,
2013-03-30 02:30:00,39.5,32.2,29.99,SSE,164,5.0,5.0,75,0.00,OVC,,0.00,WeatherDisplay:10.37,2013-03-30 07:30:00,
2013-03-30 02:35:00,39.2,32.3,29.99,SSE,159,4.6,4.6,76,0.00,OVC,,0.00,WeatherDisplay:10.37,2013-03-30 07:35:00,
2013-03-30 02:40:00,39.2,32.3,29.99,SSE,167,3.5,3.5,76,0.00,OVC,,0.00,WeatherDisplay:10.37,2013-03-30 07:40:00,
2013-03-30 02:45:00,39.1,32.2,29.98,South,171,6.9,6.9,76,0.00,OVC,,0.00,WeatherDisplay:10.37,2013-03-30 07:45:00,
2013-03-30 02:50:00,39.1,32.2,29.98,SE,144,10.4,10.4,76,0.00,OVC,,0.00,WeatherDisplay:10.37,2013-03-30 07:50:00,
2013-03-30 02:55:00,39.1,32.2,29.98,SSE,163,9.2,9.2,76,0.00,OVC,,0.00,WeatherDisplay:10.37,2013-03-30 07:55:00,
2013-03-30 03:00:00,39.1,32.2,29.97,SSE,168,9.0,9.0,76,0.00,OVC,,0.00,WeatherDisplay:10.37,2013-03-30 08:00:00,
2013-03-30 03:05:00,39.1,32.2,29.97,SSE,165,10.4,10.4,76,0.00,OVC,,0.00,WeatherDisplay:10.37,2013-03-30 08:05:00,
2013-03-30 03:10:00,39.1,32.2,29.97,SSW,202,11.5,11.5,76,0.00,OVC,,0.00,WeatherDisplay:10.37,2013-03-30 08:10:00,
2013-03-30 03:15:00,39.1,32.2,29.97,SSE,160,11.5,11.5,76,0.00,OVC,,0.00,WeatherDisplay:10.37,2013-03-30 08:15:00,
2013-03-30 03:20:00,39.1,32.2,29.97,SSE,163,7.0,7.0,76,0.00,OVC,,0.00,WeatherDisplay:10.37,2013-03-30 08:20:00,
2013-03-30 03:25:00,39.1,32.2,29.97,SSE,164,13.8,13.8,76,0.00,OVC,,0.00,WeatherDisplay:10.37,2013-03-30 08:25:00,
2013-03-30 03:30:00,39.1,32.2,29.96,South,186,10.4,10.4,76,0.00,OVC,,0.00,WeatherDisplay:10.37,2013-03-30 08:30:00,
2013-03-30 03:35:00,39.1,32.2,29.96,SSE,152,10.0,10.0,76,0.00,OVC,,0.00,WeatherDisplay:10.37,2013-03-30 08:35:00,
2013-03-30 03:40:00,39.1,32.2,29.96,SSE,155,10.4,10.4,76,0.00,OVC,,0.00,WeatherDisplay:10.37,2013-03-30 08:40:00,
2013-03-30 03:45:00,39.1,32.2,29.95,SE,138,10.0,10.0,76,0.00,OVC,,0.00,WeatherDisplay:10.37,2013-03-30 08:45:00,
2013-03-30 03:50:00,39.1,32.2,29.95,SSE,164,8.1,8.1,76,0.00,OVC,,0.00,WeatherDisplay:10.37,2013-03-30 08:50:00,
2013-03-30 03:55:00,39.3,32.4,29.95,SSE,161,11.5,11.5,76,0.00,OVC,,0.00,WeatherDisplay:10.37,2013-03-30 08:55:00,
2013-03-30 04:00:00,39.6,32.7,29.94,South,176,10.4,10.4,76,0.00,OVC,,0.00,WeatherDisplay:10.37,2013-03-30 09:00:00,
2013-03-30 04:05:00,39.6,32.7,29.94,South,171,11.5,11.5,76,0.00,OVC,,0.00,WeatherDisplay:10.37,2013-03-30 09:05:00,
2013-03-30 04:10:00,39.5,32.6,29.94,South,176,8.1,8.1,76,0.00,OVC,,0.00,WeatherDisplay:10.37,2013-03-30 09:10:00,
2013-03-30 04:15:00,39.2,32.6,29.93,SSE,165,11.5,11.5,77,0.00,OVC,,0.00,WeatherDisplay:10.37,2013-03-30 09:15:00,
2013-03-30 04:20:00,39.1,32.5,29.93,South,171,10.4,10.4,77,0.00,OVC,,0.00,WeatherDisplay:10.37,2013-03-30 09:20:00,
2013-03-30 04:25:00,38.9,32.6,29.93,South,169,10.4,10.4,78,0.00,OVC,,0.00,WeatherDisplay:10.37,2013-03-30 09:25:00,
2013-03-30 04:30:00,38.8,32.5,29.93,SSE,159,6.0,6.8,78,0.00,OVC,,0.00,WeatherDisplay:10.37,2013-03-30 09:30:00,
2013-03-30 04:34:00,38.8,32.5,29.93,SSE,153,10.4,10.4,78,0.00,OVC,,0.00,WeatherDisplay:10.37,2013-03-30 09:34:00,
2013-03-30 04:39:00,38.8,32.5,29.93,SE,142,6.9,6.9,78,0.00,OVC,,0.00,WeatherDisplay:10.37,2013-03-30 09:39:00,
2013-03-30 04:44:00,38.8,32.5,29.93,South,184,9.2,9.2,78,0.00,SCT,,0.00,WeatherDisplay:10.37,2013-03-30 09:44:00,
2013-03-30 04:49:00,39.1,32.5,29.92,South,173,11.5,11.5,77,0.00,OVC,,0.00,WeatherDisplay:10.37,2013-03-30 09:49:00,
2013-03-30 04:54:00,39.5,32.6,29.92,SSW,211,13.8,13.8,76,0.00,OVC,,0.00,WeatherDisplay:10.37,2013-03-30 09:54:00,
2013-03-30 04:59:00,39.6,32.7,29.92,SSE,159,10.4,10.4,76,0.00,OVC,,0.00,WeatherDisplay:10.37,2013-03-30 09:59:00,
2013-03-30 05:04:00,40.1,33.1,29.92,South,175,11.5,11.5,76,0.00,SCT,,0.00,WeatherDisplay:10.37,2013-03-30 10:04:00,
2013-03-30 05:09:00,40.5,32.9,29.92,SSW,192,5.8,5.8,74,0.00,OVC,,0.00,WeatherDisplay:10.37,2013-03-30 10:09:00,
2013-03-30 05:14:00,40.6,33.0,29.93,South,190,3.5,3.5,74,0.00,SCT,,0.00,WeatherDisplay:10.37,2013-03-30 10:14:00,
2013-03-30 05:19:00,40.5,33.2,29.93,South,190,3.5,3.5,75,0.01,RA,,0.01,WeatherDisplay:10.37,2013-03-30 10:19:00,
2013-03-30 05:24:00,40.5,33.5,29.93,South,188,3.5,3.5,76,0.01,RA,,0.01,WeatherDisplay:10.37,2013-03-30 10:24:00,
2013-03-30 05:29:00,40.3,33.3,29.93,SSW,196,5.8,5.8,76,0.02,RA,,0.02,WeatherDisplay:10.37,2013-03-30 10:29:00,
2013-03-30 05:34:00,40.1,33.8,29.93,SSW,199,3.5,3.5,78,0.03,RA,,0.03,WeatherDisplay:10.37,2013-03-30 10:34:00,
2013-03-30 05:39:00,39.6,33.9,29.93,SSW,199,0.0,0.0,80,0.03,RA,,0.03,WeatherDisplay:10.37,2013-03-30 10:39:00,
2013-03-30 05:44:00,39.3,34.3,29.94,SSW,199,0.0,0.0,82,0.04,-RA,,0.05,WeatherDisplay:10.37,2013-03-30 10:44:00,
2013-03-30 05:49:00,39.1,34.4,29.94,SSW,199,0.0,0.0,83,0.05,-RA,,0.05,WeatherDisplay:10.37,2013-03-30 10:49:00,
2013-03-30 05:54:00,38.9,34.5,29.94,SSW,199,1.1,1.1,84,0.06,-RA,,0.06,WeatherDisplay:10.37,2013-03-30 10:54:00,
2013-03-30 05:59:00,38.8,34.7,29.93,SSW,199,2.3,2.3,85,0.07,-RA,,0.07,WeatherDisplay:10.37,2013-03-30 10:59:00,
2013-03-30 06:04:00,38.5,34.7,29.93,SSW,199,3.5,3.5,86,0.07,-RA,,0.07,WeatherDisplay:10.37,2013-03-30 11:04:00,
2013-03-30 06:09:00,38.3,34.5,29.93,SSW,199,3.5,3.5,86,0.08,-RA,,0.08,WeatherDisplay:10.37,2013-03-30 11:09:00,
2013-03-30 06:14:00,38.0,34.2,29.92,SSE,163,6.0,6.0,86,0.08,-RA,,0.08,WeatherDisplay:10.37,2013-03-30 11:14:00,
2013-03-30 06:19:00,37.8,34.3,29.92,SE,146,5.0,5.0,87,0.08,-RA,,0.09,WeatherDisplay:10.37,2013-03-30 11:19:00,
2013-03-30 06:24:00,37.5,34.0,29.92,SE,146,3.5,3.5,87,0.08,-RA,,0.09,WeatherDisplay:10.37,2013-03-30 11:24:00,
2013-03-30 06:29:00,37.5,34.3,29.91,SSE,147,4.0,4.0,88,0.07,-RA,,0.09,WeatherDisplay:10.37,2013-03-30 11:29:00,
2013-03-30 06:34:00,37.3,34.1,29.91,SSE,158,5.8,5.8,88,0.06,-RA,,0.09,WeatherDisplay:10.37,2013-03-30 11:34:00,
2013-03-30 06:39:00,37.3,34.1,29.91,South,169,9.2,9.2,88,0.07,-RA,,0.10,WeatherDisplay:10.37,2013-03-30 11:39:00,
2013-03-30 06:44:00,37.6,34.4,29.91,SSE,159,5.0,5.0,88,0.05,RA,,0.10,WeatherDisplay:10.37,2013-03-30 11:44:00,
2013-03-30 06:49:00,37.6,34.4,29.91,South,181,5.8,5.8,88,0.05,OVC,,0.10,WeatherDisplay:10.37,2013-03-30 11:49:00,
2013-03-30 06:54:00,37.6,34.4,29.91,South,180,6.9,6.9,88,0.04,OVC,,0.10,WeatherDisplay:10.37,2013-03-30 11:54:00,
2013-03-30 06:59:00,37.6,34.4,29.90,South,182,6.9,6.9,88,0.03,-DZ,,0.10,WeatherDisplay:10.37,2013-03-30 11:59:00,
2013-03-30 07:04:00,37.6,34.4,29.90,SSE,158,6.9,6.9,88,0.03,-DZ,,0.10,WeatherDisplay:10.37,2013-03-30 12:04:00,
2013-03-30 07:09:00,37.6,34.4,29.90,South,171,5.8,5.8,88,0.02,-DZ,,0.10,WeatherDisplay:10.37,2013-03-30 12:09:00,
2013-03-30 07:14:00,37.6,34.4,29.90,South,175,6.9,6.9,88,0.02,-DZ,,0.10,WeatherDisplay:10.37,2013-03-30 12:14:00,
2013-03-30 07:19:00,37.8,34.6,29.90,SSE,161,5.0,5.0,88,0.01,-DZ,,0.10,WeatherDisplay:10.37,2013-03-30 12:19:00,
2013-03-30 07:24:00,38.0,34.5,29.90,SSE,159,5.8,5.8,87,0.01,-DZ,,0.10,WeatherDisplay:10.37,2013-03-30 12:24:00,
2013-03-30 07:29:00,38.0,34.5,29.90,South,190,6.9,6.9,87,0.01,OVC,,0.10,WeatherDisplay:10.37,2013-03-30 12:29:00,
2013-03-30 07:34:00,38.0,34.2,29.90,SSW,194,6.9,6.9,86,0.01,OVC,,0.10,WeatherDisplay:10.37,2013-03-30 12:34:00,
2013-03-30 07:39:00,38.0,34.2,29.90,South,189,9.2,9.2,86,0.00,OVC,,0.10,WeatherDisplay:10.37,2013-03-30 12:39:00,
2013-03-30 07:44:00,38.0,34.2,29.89,SSE,164,6.9,6.9,86,0.00,OVC,,0.10,WeatherDisplay:10.37,2013-03-30 12:44:00,
2013-03-30 07:49:00,38.0,34.2,29.89,South,171,9.2,9.2,86,0.00,OVC,,0.10,WeatherDisplay:10.37,2013-03-30 12:49:00,
2013-03-30 07:54:00,38.0,34.2,29.89,South,184,10.4,10.4,86,0.00,OVC,,0.10,WeatherDisplay:10.37,2013-03-30 12:54:00,
2013-03-30 07:59:00,38.2,34.4,29.89,SSE,149,11.5,11.5,86,0.00,OVC,,0.10,WeatherDisplay:10.37,2013-03-30 12:59:00,
2013-03-30 08:04:00,38.2,34.4,29.89,South,190,11.5,11.5,86,0.00,OVC,,0.10,WeatherDisplay:10.37,2013-03-30 13:04:00,
2013-03-30 08:09:00,38.3,34.2,29.89,SSW,192,9.2,9.2,85,0.00,OVC,,0.10,WeatherDisplay:10.37,2013-03-30 13:09:00,
2013-03-30 08:14:00,38.3,34.5,29.88,SSW,200,10.4,10.4,86,0.00,OVC,,0.10,WeatherDisplay:10.37,2013-03-30 13:14:00,
2013-03-30 08:19:00,38.3,34.5,29.88,South,190,6.9,6.9,86,0.00,OVC,,0.10,WeatherDisplay:10.37,2013-03-30 13:19:00,
2013-03-30 08:24:00,38.3,34.5,29.88,SSW,193,11.5,11.5,86,0.00,OVC,,0.10,WeatherDisplay:10.37,2013-03-30 13:24:00,
2013-03-30 08:29:00,38.2,34.4,29.88,SSW,211,11.5,11.5,86,0.00,OVC,,0.10,WeatherDisplay:10.37,2013-03-30 13:29:00,
2013-03-30 08:34:00,38.2,34.4,29.88,South,171,10.4,10.4,86,0.00,OVC,,0.10,WeatherDisplay:10.37,2013-03-30 13:34:00,
2013-03-30 08:39:00,38.2,34.4,29.88,South,184,13.8,13.8,86,0.01,RA,,0.11,WeatherDisplay:10.37,2013-03-30 13:39:00,
2013-03-30 08:44:00,38.3,34.8,29.88,SSW,202,11.5,11.5,87,0.02,RA,,0.12,WeatherDisplay:10.37,2013-03-30 13:44:00,
2013-03-30 08:49:00,38.5,35.3,29.88,SSW,211,11.5,11.5,88,0.02,RA,,0.12,WeatherDisplay:10.37,2013-03-30 13:49:00,
2013-03-30 08:54:00,38.8,35.6,29.88,SSW,213,12.7,12.7,88,0.02,-RA,,0.12,WeatherDisplay:10.37,2013-03-30 13:54:00,
2013-03-30 08:59:00,38.9,35.6,29.88,SSW,193,11.5,11.5,88,0.02,OVC,,0.12,WeatherDisplay:10.37,2013-03-30 13:59:00,
2013-03-30 09:04:00,39.1,35.8,29.87,SSE,167,11.5,11.5,88,0.02,OVC,,0.12,WeatherDisplay:10.37,2013-03-30 14:04:00,
2013-03-30 09:09:00,39.3,36.0,29.87,SW,228,10.4,10.4,88,0.02,OVC,,0.12,WeatherDisplay:10.37,2013-03-30 14:09:00,
2013-03-30 09:14:00,39.5,36.2,29.87,SSW,202,12.7,12.7,88,0.02,OVC,,0.12,WeatherDisplay:10.37,2013-03-30 14:14:00,
2013-03-30 09:19:00,39.6,36.0,29.87,South,186,11.5,11.5,87,0.02,OVC,,0.12,WeatherDisplay:10.37,2013-03-30 14:19:00,
2013-03-30 09:24:00,39.8,36.2,29.87,South,178,11.5,11.5,87,0.02,OVC,,0.12,WeatherDisplay:10.37,2013-03-30 14:24:00,
2013-03-30 09:29:00,39.9,36.3,29.87,South,182,11.5,11.5,87,0.02,OVC,,0.12,WeatherDisplay:10.37,2013-03-30 14:29:00,
2013-03-30 09:34:00,40.1,36.5,29.87,SSW,205,11.5,11.5,87,0.02,OVC,,0.12,WeatherDisplay:10.37,2013-03-30 14:34:00,
2013-03-30 09:39:00,40.1,36.2,29.87,SSW,194,10.4,10.4,86,0.01,OVC,,0.12,WeatherDisplay:10.37,2013-03-30 14:39:00,
2013-03-30 09:44:00,40.1,36.5,29.86,SSW,200,11.5,11.5,87,0.01,RA,,0.13,WeatherDisplay:10.37,2013-03-30 14:44:00,
2013-03-30 09:49:00,40.1,36.5,29.86,SW,220,7.0,7.0,87,0.01,RA,,0.13,WeatherDisplay:10.37,2013-03-30 14:49:00,
2013-03-30 09:54:00,40.1,36.5,29.86,SSW,198,11.5,11.5,87,0.01,OVC,,0.13,WeatherDisplay:10.37,2013-03-30 14:54:00,
2013-03-30 09:59:00,40.1,36.8,29.86,SSW,206,11.5,11.5,88,0.01,OVC,,0.13,WeatherDisplay:10.37,2013-03-30 14:59:00,
2013-03-30 10:04:00,40.1,36.8,29.86,SW,217,6.9,6.9,88,0.01,OVC,,0.13,WeatherDisplay:10.37,2013-03-30 15:04:00,
2013-03-30 10:09:00,40.1,36.8,29.86,SW,227,7.0,7.0,88,0.01,OVC,,0.13,WeatherDisplay:10.37,2013-03-30 15:09:00,
2013-03-30 10:14:00,40.1,36.8,29.86,SW,223,6.9,6.9,88,0.01,OVC,,0.13,WeatherDisplay:10.37,2013-03-30 15:14:00,
2013-03-30 10:19:00,40.1,36.8,29.86,SSW,198,4.6,4.6,88,0.01,OVC,,0.13,WeatherDisplay:10.37,2013-03-30 15:19:00,
2013-03-30 10:24:00,40.1,37.1,29.86,SSW,201,6.0,6.0,89,0.01,OVC,,0.13,WeatherDisplay:10.37,2013-03-30 15:24:00,
2013-03-30 10:29:00,40.2,37.2,29.86,SSW,209,9.2,9.2,89,0.01,-DZ,,0.13,WeatherDisplay:10.37,2013-03-30 15:29:00,
2013-03-30 10:34:00,40.3,37.3,29.86,SW,215,6.9,6.9,89,0.01,-DZ,,0.13,WeatherDisplay:10.37,2013-03-30 15:34:00,
2013-03-30 10:39:00,40.3,37.3,29.86,SW,217,5.8,5.8,89,0.01,-DZ,,0.13,WeatherDisplay:10.37,2013-03-30 15:39:00,
2013-03-30 10:44:00,40.5,37.5,29.86,SSW,212,5.8,5.8,89,0.00,OVC,,0.13,WeatherDisplay:10.37,2013-03-30 15:44:00,
2013-03-30 10:49:00,40.6,37.6,29.86,West,260,4.6,4.6,89,0.00,OVC,,0.13,WeatherDisplay:10.37,2013-03-30 15:49:00,
2013-03-30 10:54:00,40.9,37.9,29.86,SW,232,4.6,4.6,89,0.00,OVC,,0.13,WeatherDisplay:10.37,2013-03-30 15:54:00,
2013-03-30 10:59:00,41.2,38.2,29.86,SW,230,11.5,11.5,89,0.00,OVC,,0.13,WeatherDisplay:10.37,2013-03-30 15:59:00,
2013-03-30 11:04:00,41.5,38.5,29.87,WSW,242,6.9,6.9,89,0.00,OVC,,0.13,WeatherDisplay:10.37,2013-03-30 16:04:00,
2013-03-30 11:09:00,41.9,38.9,29.87,SW,228,5.8,5.8,89,0.00,OVC,,0.13,WeatherDisplay:10.37,2013-03-30 16:09:00,
2013-03-30 11:14:00,42.3,39.3,29.86,SW,232,6.9,6.9,89,0.00,OVC,,0.13,WeatherDisplay:10.37,2013-03-30 16:14:00,
2013-03-30 11:19:00,43.1,40.1,29.86,West,266,6.0,6.0,89,0.00,OVC,,0.13,WeatherDisplay:10.37,2013-03-30 16:19:00,
2013-03-30 11:24:00,43.3,40.3,29.86,SW,229,10.4,10.4,89,0.00,OVC,,0.13,WeatherDisplay:10.37,2013-03-30 16:24:00,
2013-03-30 11:29:00,43.3,40.0,29.86,West,266,8.1,8.1,88,0.00,OVC,,0.13,WeatherDisplay:10.37,2013-03-30 16:29:00,
2013-03-30 11:34:00,43.5,40.2,29.86,West,268,6.9,6.9,88,0.00,OVC,,0.13,WeatherDisplay:10.37,2013-03-30 16:34:00,
2013-03-30 11:39:00,43.6,40.0,29.86,West,275,8.1,8.1,87,0.00,OVC,,0.13,WeatherDisplay:10.37,2013-03-30 16:39:00,
2013-03-30 11:44:00,43.9,40.0,29.86,West,276,3.5,3.5,86,0.00,BKN,,0.13,WeatherDisplay:10.37,2013-03-30 16:44:00,
2013-03-30 11:49:00,44.5,40.6,29.86,WSW,252,3.5,3.5,86,0.00,BKN,,0.13,WeatherDisplay:10.37,2013-03-30 16:49:00,
2013-03-30 11:54:00,44.8,40.3,29.86,NW,311,3.5,3.5,84,0.00,BKN,,0.13,WeatherDisplay:10.37,2013-03-30 16:54:00,
2013-03-30 11:59:00,45.2,40.0,29.86,WSW,245,6.9,6.9,82,0.00,BKN,,0.13,WeatherDisplay:10.37,2013-03-30 16:59:00,
2013-03-30 12:04:00,45.8,40.3,29.86,WNW,285,8.1,8.1,81,0.00,BKN,,0.13,WeatherDisplay:10.37,2013-03-30 17:04:00,
2013-03-30 12:09:00,46.5,40.3,29.86,West,271,9.2,9.2,79,0.00,BKN,,0.13,WeatherDisplay:10.37,2013-03-30 17:09:00,
2013-03-30 12:14:00,47.4,40.2,29.86,WNW,294,9.2,9.2,76,0.00,BKN,,0.13,WeatherDisplay:10.37,2013-03-30 17:14:00,
2013-03-30 12:19:00,48.0,40.5,29.86,West,263,5.8,5.8,75,0.00,BKN,,0.13,WeatherDisplay:10.37,2013-03-30 17:19:00,
2013-03-30 12:24:00,48.0,40.1,29.86,WNW,295,5.8,5.8,74,0.00,BKN,,0.13,WeatherDisplay:10.37,2013-03-30 17:24:00,
2013-03-30 12:29:00,48.3,40.4,29.86,West,267,6.9,6.9,74,0.00,BKN,,0.13,WeatherDisplay:10.37,2013-03-30 17:29:00,
2013-03-30 12:34:00,48.6,40.3,29.86,SW,229,4.6,4.6,73,0.00,BKN,,0.13,WeatherDisplay:10.37,2013-03-30 17:34:00,
2013-03-30 12:39:00,48.3,40.0,29.86,West,259,8.1,8.1,73,0.00,BKN,,0.13,WeatherDisplay:10.37,2013-03-30 17:39:00,
2013-03-30 12:44:00,48.0,39.8,29.86,NW,324,6.9,6.9,73,0.00,BKN,,0.13,WeatherDisplay:10.37,2013-03-30 17:44:00,
2013-03-30 12:49:00,47.7,40.2,29.86,NW,323,9.2,9.2,75,0.00,BKN,,0.13,WeatherDisplay:10.37,2013-03-30 17:49:00,
2013-03-30 12:54:00,47.9,40.0,29.86,NW,320,3.5,3.5,74,0.00,BKN,,0.13,WeatherDisplay:10.37,2013-03-30 17:54:00,
2013-03-30 12:59:00,47.9,40.4,29.85,West,267,6.9,6.9,75,0.00,BKN,,0.13,WeatherDisplay:10.37,2013-03-30 17:59:00,
2013-03-30 13:04:00,48.5,40.6,29.85,NW,321,5.8,5.8,74,0.00,BKN,,0.13,WeatherDisplay:10.37,2013-03-30 18:04:00,
2013-03-30 13:09:00,49.2,40.6,29.85,SW,227,5.8,5.8,72,0.00,BKN,,0.13,WeatherDisplay:10.37,2013-03-30 18:09:00,
2013-03-30 13:14:00,50.1,41.1,29.85,NW,311,5.0,5.2,71,0.00,BKN,,0.13,WeatherDisplay:10.37,2013-03-30 18:14:00,
2013-03-30 13:19:00,49.9,40.5,29.85,WNW,294,10.4,10.4,70,0.00,BKN,,0.13,WeatherDisplay:10.37,2013-03-30 18:19:00,
2013-03-30 13:24:00,50.1,41.1,29.85,NW,306,3.5,3.5,71,0.00,BKN,,0.13,WeatherDisplay:10.37,2013-03-30 18:24:00,
2013-03-30 13:29:00,50.8,41.0,29.85,West,266,9.2,9.2,69,0.00,SCT,,0.13,WeatherDisplay:10.37,2013-03-30 18:29:00,
2013-03-30 13:34:00,51.7,41.1,29.85,WNW,302,10.4,10.4,67,0.00,SCT,,0.13,WeatherDisplay:10.37,2013-03-30 18:34:00,
2013-03-30 13:39:00,51.4,40.8,29.85,WNW,285,5.8,5.8,67,0.00,SCT,,0.13,WeatherDisplay:10.37,2013-03-30 18:39:00,
2013-03-30 13:44:00,51.6,41.0,29.85,WSW,256,6.9,6.9,67,0.00,SCT,,0.13,WeatherDisplay:10.37,2013-03-30 18:44:00,
2013-03-30 13:49:00,52.0,40.6,29.85,NNW,333,10.4,10.4,65,0.00,SCT,,0.13,WeatherDisplay:10.37,2013-03-30 18:49:00,
2013-03-30 13:54:00,52.0,41.0,29.85,NNW,331,9.0,9.0,66,0.00,SCT,,0.13,WeatherDisplay:10.37,2013-03-30 18:54:00,
2013-03-30 13:59:00,51.7,41.1,29.85,WNW,302,9.2,9.2,67,0.00,SCT,,0.13,WeatherDisplay:10.37,2013-03-30 18:59:00,
2013-03-30 14:04:00,51.9,40.9,29.85,WNW,297,13.8,13.8,66,0.00,SCT,,0.13,WeatherDisplay:10.37,2013-03-30 19:04:00,
2013-03-30 14:09:00,52.0,41.0,29.85,NW,315,4.6,4.6,66,0.00,SCT,,0.13,WeatherDisplay:10.37,2013-03-30 19:09:00,
2013-03-30 14:14:00,51.9,40.9,29.85,West,269,6.9,6.9,66,0.00,SCT,,0.13,WeatherDisplay:10.37,2013-03-30 19:14:00,
2013-03-30 14:19:00,51.9,40.5,29.84,NW,314,10.4,10.4,65,0.00,SCT,,0.13,WeatherDisplay:10.37,2013-03-30 19:19:00,
2013-03-30 14:24:00,52.3,40.5,29.84,WSW,245,9.0,9.0,64,0.00,SCT,,0.13,WeatherDisplay:10.37,2013-03-30 19:24:00,
2013-03-30 14:29:00,52.0,40.6,29.84,WNW,288,7.0,7.0,65,0.00,SCT,,0.13,WeatherDisplay:10.37,2013-03-30 19:29:00,
2013-03-30 14:34:00,52.0,40.6,29.84,NNW,333,5.8,5.8,65,0.00,SCT,,0.13,WeatherDisplay:10.37,2013-03-30 19:34:00,
2013-03-30 14:39:00,52.6,40.8,29.84,West,281,3.5,3.5,64,0.00,SCT,,0.13,WeatherDisplay:10.37,2013-03-30 19:39:00,
2013-03-30 14:44:00,53.2,40.9,29.84,West,263,10.4,10.4,63,0.00,CLR,,0.13,WeatherDisplay:10.37,2013-03-30 19:44:00,
2013-03-30 14:49:00,53.3,40.6,29.84,WNW,287,9.2,9.2,62,0.00,CLR,,0.13,WeatherDisplay:10.37,2013-03-30 19:49:00,
2013-03-30 14:54:00,54.2,41.0,29.84,WNW,290,10.4,10.4,61,0.00,CLR,,0.13,WeatherDisplay:10.37,2013-03-30 19:54:00,
2013-03-30 14:59:00,54.4,40.8,29.83,NW,306,9.2,9.2,60,0.00,CLR,,0.13,WeatherDisplay:10.37,2013-03-30 19:59:00,
2013-03-30 15:04:00,54.4,40.8,29.83,WNW,295,3.5,3.5,60,0.00,CLR,,0.13,WeatherDisplay:10.37,2013-03-30 20:04:00,
2013-03-30 15:09:00,53.9,40.8,29.83,NW,309,2.3,2.3,61,0.00,CLR,,0.13,WeatherDisplay:10.37,2013-03-30 20:09:00,
2013-03-30 15:14:00,54.2,40.6,29.83,NW,312,4.6,4.6,60,0.00,CLR,,0.13,WeatherDisplay:10.37,2013-03-30 20:14:00,
2013-03-30 15:19:00,54.1,40.5,29.83,North,355,5.8,5.8,60,0.00,CLR,,0.13,WeatherDisplay:10.37,2013-03-30 20:19:00,
2013-03-30 15:24:00,53.9,40.3,29.83,NW,320,5.8,5.8,60,0.00,CLR,,0.13,WeatherDisplay:10.37,2013-03-30 20:24:00,
2013-03-30 15:29:00,54.4,40.4,29.83,WNW,300,4.6,4.6,59,0.00,CLR,,0.13,WeatherDisplay:10.37,2013-03-30 20:29:00,
2013-03-30 15:34:00,54.7,40.2,29.83,NNW,327,10.4,10.4,58,0.00,CLR,,0.13,WeatherDisplay:10.37,2013-03-30 20:34:00,
2013-03-30 15:39:00,54.1,40.1,29.83,WSW,256,9.0,9.0,59,0.00,CLR,,0.13,WeatherDisplay:10.37,2013-03-30 20:39:00,
2013-03-30 15:44:00,53.8,39.8,29.83,WNW,300,10.4,10.4,59,0.00,CLR,,0.13,WeatherDisplay:10.37,2013-03-30 20:44:00,
2013-03-30 15:49:00,53.8,39.8,29.83,West,272,9.2,9.2,59,0.00,CLR,,0.13,WeatherDisplay:10.37,2013-03-30 20:49:00,
2013-03-30 15:54:00,54.1,39.2,29.83,West,270,5.8,5.8,57,0.00,CLR,,0.13,WeatherDisplay:10.37,2013-03-30 20:54:00,
2013-03-30 15:59:00,54.5,39.6,29.83,NW,311,5.8,5.8,57,0.00,CLR,,0.13,WeatherDisplay:10.37,2013-03-30 20:59:00,
2013-03-30 16:04:00,54.4,39.0,29.83,NW,317,6.9,6.9,56,0.00,CLR,,0.13,WeatherDisplay:10.37,2013-03-30 21:04:00,
2013-03-30 16:09:00,54.1,39.2,29.83,WNW,296,5.8,5.8,57,0.00,CLR,,0.13,WeatherDisplay:10.37,2013-03-30 21:09:00,
2013-03-30 16:14:00,54.2,39.7,29.83,WNW,291,9.2,9.2,58,0.00,CLR,,0.13,WeatherDisplay:10.37,2013-03-30 21:14:00,
2013-03-30 16:19:00,54.4,40.8,29.83,WNW,284,8.1,8.1,60,0.00,CLR,,0.13,WeatherDisplay:10.37,2013-03-30 21:19:00,
2013-03-30 16:24:00,55.0,40.9,29.83,WNW,284,3.5,3.5,59,0.00,CLR,,0.13,WeatherDisplay:10.37,2013-03-30 21:24:00,
2013-03-30 16:29:00,55.3,40.8,29.83,WNW,284,5.8,5.8,58,0.00,CLR,,0.13,WeatherDisplay:10.37,2013-03-30 21:29:00,
2013-03-30 16:34:00,55.3,40.8,29.83,West,267,9.2,9.2,58,0.00,CLR,,0.13,WeatherDisplay:10.37,2013-03-30 21:34:00,
2013-03-30 16:39:00,55.3,40.8,29.83,West,263,6.9,6.9,58,0.00,CLR,,0.13,WeatherDisplay:10.37,2013-03-30 21:39:00,
2013-03-30 16:44:00,55.1,41.0,29.83,West,266,6.9,6.9,59,0.00,CLR,,0.13,WeatherDisplay:10.37,2013-03-30 21:44:00,
2013-03-30 16:49:00,54.5,40.0,29.83,NW,325,4.6,4.6,58,0.00,CLR,,0.13,WeatherDisplay:10.37,2013-03-30 21:49:00,
2013-03-30 16:54:00,54.4,39.9,29.83,West,279,11.5,11.5,58,0.00,CLR,,0.13,WeatherDisplay:10.37,2013-03-30 21:54:00,
2013-03-30 16:59:00,54.5,40.5,29.83,NW,306,5.8,5.8,59,0.00,CLR,,0.13,WeatherDisplay:10.37,2013-03-30 21:59:00,
2013-03-30 17:04:00,54.5,40.0,29.83,NW,313,5.8,5.8,58,0.00,CLR,,0.13,WeatherDisplay:10.37,2013-03-30 22:04:00,
2013-03-30 17:09:00,54.1,39.6,29.83,NNW,327,6.9,6.9,58,0.00,CLR,,0.13,WeatherDisplay:10.37,2013-03-30 22:09:00,
2013-03-30 17:14:00,53.9,40.3,29.83,WNW,301,6.9,6.9,60,0.00,CLR,,0.13,WeatherDisplay:10.37,2013-03-30 22:14:00,
2013-03-30 17:19:00,53.6,39.6,29.83,NNW,332,6.9,6.9,59,0.00,CLR,,0.13,WeatherDisplay:10.37,2013-03-30 22:19:00,
2013-03-30 17:24:00,53.3,39.8,29.83,NNW,344,9.2,9.2,60,0.00,CLR,,0.13,WeatherDisplay:10.37,2013-03-30 22:24:00,
2013-03-30 17:29:00,53.1,39.6,29.83,WNW,294,6.9,6.9,60,0.00,CLR,,0.13,WeatherDisplay:10.37,2013-03-30 22:29:00,
2013-03-30 17:34:00,53.1,38.3,29.83,WSW,246,8.1,8.1,57,0.00,CLR,,0.13,WeatherDisplay:10.37,2013-03-30 22:34:00,
2013-03-30 17:39:00,52.8,38.4,29.83,NW,304,5.8,5.8,58,0.00,CLR,,0.13,WeatherDisplay:10.37,2013-03-30 22:39:00,
2013-03-30 17:44:00,52.9,38.5,29.83,NW,323,6.9,6.9,58,0.00,CLR,,0.13,WeatherDisplay:10.37,2013-03-30 22:44:00,
2013-03-30 17:49:00,52.6,39.9,29.83,NW,311,6.0,6.0,62,0.00,CLR,,0.13,WeatherDisplay:10.37,2013-03-30 22:49:00,
2013-03-30 17:54:00,52.5,39.8,29.83,WSW,252,10.0,10.0,62,0.00,CLR,,0.13,WeatherDisplay:10.37,2013-03-30 22:54:00,
2013-03-30 17:59:00,52.3,39.2,29.83,NW,306,5.8,5.8,61,0.00,CLR,,0.13,WeatherDisplay:10.37,2013-03-30 22:59:00,
2013-03-30 18:04:00,52.5,39.4,29.83,West,281,3.5,3.5,61,0.00,CLR,,0.13,WeatherDisplay:10.37,2013-03-30 23:04:00,
2013-03-30 18:09:00,52.5,39.8,29.83,West,267,3.5,3.5,62,0.00,CLR,,0.13,WeatherDisplay:10.37,2013-03-30 23:09:00,
2013-03-30 18:14:00,52.3,39.7,29.83,NW,307,5.8,5.8,62,0.00,CLR,,0.13,WeatherDisplay:10.37,2013-03-30 23:14:00,
2013-03-30 18:19:00,51.7,39.5,29.83,West,267,9.2,9.2,63,0.00,CLR,,0.13,WeatherDisplay:10.37,2013-03-30 23:19:00,
2013-03-30 18:24:00,51.1,39.3,29.83,WSW,243,4.6,4.6,64,0.00,CLR,,0.13,WeatherDisplay:10.37,2013-03-30 23:24:00,
2013-03-30 18:29:00,50.8,39.5,29.83,West,263,5.8,5.8,65,0.00,CLR,,0.13,WeatherDisplay:10.37,2013-03-30 23:29:00,
2013-03-30 18:34:00,50.5,39.2,29.83,West,274,9.0,9.0,65,0.00,CLR,,0.13,WeatherDisplay:10.37,2013-03-30 23:34:00,
2013-03-30 18:39:00,50.1,39.2,29.83,West,265,4.6,4.6,66,0.00,CLR,,0.13,WeatherDisplay:10.37,2013-03-30 23:39:00,
2013-03-30 18:44:00,49.4,38.5,29.83,WNW,287,9.2,9.2,66,0.00,CLR,,0.13,WeatherDisplay:10.37,2013-03-30 23:44:00,
2013-03-30 18:49:00,48.5,38.0,29.83,West,281,5.8,5.8,67,0.00,CLR,,0.13,WeatherDisplay:10.37,2013-03-30 23:49:00,
2013-03-30 18:54:00,47.9,37.8,29.83,West,281,5.8,5.8,68,0.00,CLR,,0.13,WeatherDisplay:10.37,2013-03-30 23:54:00,
2013-03-30 18:59:00,47.4,38.1,29.83,WNW,293,6.9,6.9,70,0.00,CLR,,0.13,WeatherDisplay:10.37,2013-03-30 23:59:00,
2013-03-30 19:04:00,46.7,38.9,29.83,WSW,248,7.0,7.0,74,0.00,CLR,,0.13,WeatherDisplay:10.37,2013-03-31 00:04:00,
2013-03-30 19:09:00,45.8,38.7,29.83,West,265,6.9,6.9,76,0.00,CLR,,0.13,WeatherDisplay:10.37,2013-03-31 00:09:00,
2013-03-30 19:14:00,45.2,38.4,29.83,West,265,4.6,4.6,77,0.00,CLR,,0.13,WeatherDisplay:10.37,2013-03-31 00:14:00,
2013-03-30 19:19:00,44.6,38.5,29.83,West,266,9.2,9.2,79,0.00,CLR,,0.13,WeatherDisplay:10.37,2013-03-31 00:19:00,
2013-03-30 19:24:00,44.1,38.3,29.83,WNW,295,6.0,6.0,80,0.00,CLR,,0.13,WeatherDisplay:10.37,2013-03-31 00:24:00,
2013-03-30 19:29:00,43.5,37.7,29.83,West,265,3.5,3.5,80,0.00,CLR,,0.13,WeatherDisplay:10.37,2013-03-31 00:29:00,
2013-03-30 19:34:00,42.9,37.5,29.83,West,278,4.0,4.0,81,0.00,CLR,,0.13,WeatherDisplay:10.37,2013-03-31 00:34:00,
2013-03-30 19:39:00,42.5,37.4,29.83,West,271,6.0,6.0,82,0.00,CLR,,0.13,WeatherDisplay:10.37,2013-03-31 00:39:00,
2013-03-30 19:44:00,41.9,37.1,29.83,WSW,257,6.0,6.0,83,0.00,CLR,,0.13,WeatherDisplay:10.37,2013-03-31 00:44:00,
2013-03-30 19:49:00,41.5,37.0,29.83,West,271,5.8,5.8,84,0.00,CLR,,0.13,WeatherDisplay:10.37,2013-03-31 00:49:00,
2013-03-30 19:54:00,41.1,36.9,29.83,West,270,4.6,4.6,85,0.00,CLR,,0.13,WeatherDisplay:10.37,2013-03-31 00:54:00,
2013-03-30 19:59:00,40.6,36.4,29.83,West,270,4.6,4.6,85,0.00,CLR,,0.13,WeatherDisplay:10.37,2013-03-31 00:59:00,
2013-03-30 20:04:00,40.3,36.4,29.83,West,267,6.9,6.9,86,0.00,CLR,,0.13,WeatherDisplay:10.37,2013-03-31 01:04:00,
2013-03-30 20:09:00,39.9,36.1,29.83,West,273,9.2,9.2,86,0.00,CLR,,0.13,WeatherDisplay:10.37,2013-03-31 01:09:00,
2013-03-30 20:14:00,39.5,36.0,29.83,West,260,4.6,4.6,87,0.00,CLR,,0.13,WeatherDisplay:10.37,2013-03-31 01:14:00,
2013-03-30 20:19:00,39.2,35.7,29.84,WSW,256,5.8,5.8,87,0.00,CLR,,0.13,WeatherDisplay:10.37,2013-03-31 01:19:00,
2013-03-30 20:24:00,38.8,35.6,29.84,WSW,257,4.6,4.6,88,0.00,CLR,,0.13,WeatherDisplay:10.37,2013-03-31 01:24:00,
2013-03-30 20:29:00,38.3,35.1,29.84,West,266,5.0,5.0,88,0.00,BKN,,0.13,WeatherDisplay:10.37,2013-03-31 01:29:00,
2013-03-30 20:34:00,38.0,35.0,29.84,West,275,5.8,5.8,89,0.00,BKN,,0.13,WeatherDisplay:10.37,2013-03-31 01:34:00,
2013-03-30 20:39:00,37.9,34.9,29.84,West,261,6.9,6.9,89,0.00,BKN,,0.13,WeatherDisplay:10.37,2013-03-31 01:39:00,
2013-03-30 20:44:00,37.6,34.7,29.84,WSW,249,10.4,10.4,89,0.00,SCT,,0.13,WeatherDisplay:10.37,2013-03-31 01:44:00,
2013-03-30 20:49:00,37.5,34.6,29.84,WSW,243,3.5,3.6,89,0.00,SCT,,0.13,WeatherDisplay:10.37,2013-03-31 01:49:00,
2013-03-30 20:54:00,37.3,34.4,29.84,West,266,5.8,5.8,89,0.00,SCT,,0.13,WeatherDisplay:10.37,2013-03-31 01:54:00,
2013-03-30 20:59:00,37.2,34.5,29.85,West,272,11.5,11.5,90,0.00,CLR,,0.13,WeatherDisplay:10.37,2013-03-31 01:59:00,
2013-03-30 21:04:00,37.2,34.5,29.85,WNW,284,6.9,6.9,90,0.00,CLR,,0.13,WeatherDisplay:10.37,2013-03-31 02:04:00,
2013-03-30 21:09:00,37.2,34.5,29.85,WNW,294,10.4,10.4,90,0.00,CLR,,0.13,WeatherDisplay:10.37,2013-03-31 02:09:00,
2013-03-30 21:14:00,36.9,34.2,29.85,WNW,290,6.0,6.0,90,0.00,CLR,,0.13,WeatherDisplay:10.37,2013-03-31 02:14:00,
2013-03-30 21:19:00,36.8,34.1,29.85,West,259,9.2,9.2,90,0.00,CLR,,0.13,WeatherDisplay:10.37,2013-03-31 02:19:00,
2013-03-30 21:24:00,36.6,33.9,29.85,West,277,4.6,4.6,90,0.00,CLR,,0.13,WeatherDisplay:10.37,2013-03-31 02:24:00,
2013-03-30 21:29:00,36.5,33.8,29.85,SSW,209,6.9,6.9,90,0.00,CLR,,0.13,WeatherDisplay:10.37,2013-03-31 02:29:00,
2013-03-30 21:34:00,36.3,33.6,29.85,WSW,245,10.4,10.4,90,0.00,CLR,,0.13,WeatherDisplay:10.37,2013-03-31 02:34:00,
2013-03-30 21:39:00,36.2,33.8,29.85,West,263,11.5,11.5,91,0.00,CLR,,0.13,WeatherDisplay:10.37,2013-03-31 02:39:00,
2013-03-30 21:44:00,36.2,33.8,29.85,NW,317,5.8,5.8,91,0.00,CLR,,0.13,WeatherDisplay:10.37,2013-03-31 02:44:00,
2013-03-30 21:49:00,36.0,33.6,29.85,WNW,300,3.5,3.5,91,0.00,CLR,,0.13,WeatherDisplay:10.37,2013-03-31 02:49:00,
2013-03-30 21:54:00,35.9,33.5,29.85,West,263,4.6,4.6,91,0.00,CLR,,0.13,WeatherDisplay:10.37,2013-03-31 02:54:00,
2013-03-30 21:59:00,35.8,33.4,29.85,WNW,286,4.6,4.6,91,0.00,CLR,,0.13,WeatherDisplay:10.37,2013-03-31 02:59:00,
2013-03-30 22:04:00,35.6,33.2,29.85,West,261,3.5,3.5,91,0.00,CLR,,0.13,WeatherDisplay:10.37,2013-03-31 03:04:00,
2013-03-30 22:09:00,35.5,33.1,29.85,West,267,5.0,5.0,91,0.00,CLR,,0.13,WeatherDisplay:10.37,2013-03-31 03:09:00,
2013-03-30 22:14:00,35.3,32.9,29.85,West,273,3.5,3.5,91,0.00,CLR,,0.13,WeatherDisplay:10.37,2013-03-31 03:14:00,
2013-03-30 22:19:00,35.3,32.9,29.85,WSW,256,3.5,3.5,91,0.00,CLR,,0.13,WeatherDisplay:10.37,2013-03-31 03:19:00,
2013-03-30 22:24:00,35.2,32.8,29.85,WNW,282,4.6,4.6,91,0.00,CLR,,0.13,WeatherDisplay:10.37,2013-03-31 03:24:00,
2013-03-30 22:29:00,35.2,32.8,29.85,WSW,251,4.6,4.6,91,0.00,CLR,,0.13,WeatherDisplay:10.37,2013-03-31 03:29:00,
2013-03-30 22:34:00,35.0,32.6,29.85,WSW,254,5.8,5.8,91,0.00,CLR,,0.13,WeatherDisplay:10.37,2013-03-31 03:34:00,
2013-03-30 22:39:00,34.9,32.5,29.85,WNW,287,5.8,5.8,91,0.00,CLR,,0.13,WeatherDisplay:10.37,2013-03-31 03:39:00,
2013-03-30 22:44:00,34.9,32.5,29.85,WNW,294,6.9,6.9,91,0.00,CLR,,0.13,WeatherDisplay:10.37,2013-03-31 03:44:00,
2013-03-30 22:49:00,34.9,32.5,29.85,WNW,286,4.6,4.6,91,0.00,CLR,,0.13,WeatherDisplay:10.37,2013-03-31 03:49:00,
2013-03-30 22:54:00,34.7,32.3,29.85,WNW,287,6.9,6.9,91,0.00,CLR,,0.13,WeatherDisplay:10.37,2013-03-31 03:54:00,
2013-03-30 22:59:00,34.7,32.3,29.85,West,280,6.9,6.9,91,0.00,CLR,,0.13,WeatherDisplay:10.37,2013-03-31 03:59:00,
2013-03-30 23:00:00,34.7,32.3,29.85,West,281,6.9,6.9,91,0.00,CLR,,0.13,WeatherDisplay:10.37,2013-03-31 04:00:00,
2013-03-30 23:05:00,34.7,32.3,29.85,West,263,3.5,3.5,91,0.00,CLR,,0.13,WeatherDisplay:10.37,2013-03-31 04:05:00,
2013-03-30 23:10:00,34.6,32.2,29.85,WNW,297,6.9,6.9,91,0.00,CLR,,0.13,WeatherDisplay:10.37,2013-03-31 04:10:00,
2013-03-30 23:15:00,34.4,32.0,29.84,WNW,287,3.5,3.5,91,0.00,CLR,,0.13,WeatherDisplay:10.37,2013-03-31 04:15:00,
2013-03-30 23:20:00,34.4,31.8,29.84,WNW,286,4.6,4.6,90,0.00,CLR,,0.13,WeatherDisplay:10.37,2013-03-31 04:20:00,
2013-03-30 23:25:00,34.3,31.7,29.84,WNW,286,4.6,4.6,90,0.00,CLR,,0.13,WeatherDisplay:10.37,2013-03-31 04:25:00,
2013-03-30 23:30:00,34.3,31.7,29.83,West,276,4.6,4.6,90,0.00,CLR,,0.13,WeatherDisplay:10.37,2013-03-31 04:30:00,
2013-03-30 23:35:00,34.1,31.5,29.83,NW,321,6.0,6.0,90,0.00,CLR,,0.13,WeatherDisplay:10.37,2013-03-31 04:35:00,
2013-03-30 23:40:00,34.1,31.5,29.83,West,278,4.6,4.6,90,0.00,CLR,,0.13,WeatherDisplay:10.37,2013-03-31 04:40:00,
2013-03-30 23:45:00,34.0,31.4,29.83,West,280,2.3,2.3,90,0.00,CLR,,0.13,WeatherDisplay:10.37,2013-03-31 04:45:00,
2013-03-30 23:50:00,34.0,31.4,29.83,WNW,288,5.8,5.8,90,0.00,CLR,,0.13,WeatherDisplay:10.37,2013-03-31 04:50:00,
2013-03-30 23:55:00,33.8,31.2,29.83,West,265,4.6,4.6,90,0.00,CLR,,0.13,WeatherDisplay:10.37,2013-03-31 04:55:00,